EGMD/LYX METAR and TAF weather

Enter ICAO airport designator
Station Type Date Time Source
EGMD METAR 2020/09/18 22:50 UTC NOAA

EGMD 182250Z AUTO 05017KT 9999 NCD 18/14 Q1018


Station Type Date Time Source
EGMD Decoded METAR 2020/09/18 22:50 UTC NOAA

Lydd Airport , United Kingdom (EGMD) 50-57N 000-56E
Sep 18, 2020 - 06:50 PM EDT / 2020.09.18 2250 UTC
Wind: from the NE (050 degrees) at 20 MPH (17 KT):0
Visibility: greater than 7 mile(s):0
Temperature: 64 F (18 C)
Dew Point: 57 F (14 C)
Relative Humidity: 77%
Pressure (altimeter): 30.06 in. Hg (1018 hPa)
ob: EGMD 182250Z AUTO 05017KT 9999 NCD 18/14 Q1018
cycle: 23

Station Type Date Time Source
EGMD TAF UTC NOAA

Error!

Example: see airport list